International Virtual Aviation Organisation

Eastern Europe and Northern Asia MCD

 
UWKS 121130Z 11005MPS CAVOK 13/M01 Q1037 R06/010060 NOSIG RMK QFE762
QNH:(hPa/inHg/mmHg)1037 / 30.62 / 778
QFE:(hPa/inHg/mmHg)1016 / 30.01 / 762
Temperature13
Dew Point-1
Visibility> 10000
WeatherCAVOK
Cloud Cover
Transition Height800 m./3200 ft.
Transition LevelFL40
SQUAWK